sensor_id;sensor_type;location;lat;lon;timestamp;P1;durP1;ratioP1;P2;durP2;ratioP2
21943;SDS011;11136;48.778;9.126;2024-01-30T00:01:55;6.75;;;3.95;;
21943;SDS011;11136;48.778;9.126;2024-01-30T00:04:20;5.40;;;3.95;;
21943;SDS011;11136;48.778;9.126;2024-01-30T00:06:45;7.43;;;3.80;;
21943;SDS011;11136;48.778;9.126;2024-01-30T00:09:11;6.03;;;3.30;;
21943;SDS011;11136;48.778;9.126;2024-01-30T00:11:36;11.18;;;3.90;;
21943;SDS011;11136;48.778;9.126;2024-01-30T00:14:03;7.65;;;3.72;;
21943;SDS011;11136;48.778;9.126;2024-01-30T00:16:28;8.75;;;3.85;;
21943;SDS011;11136;48.778;9.126;2024-01-30T00:18:54;6.88;;;4.28;;
21943;SDS011;11136;48.778;9.126;2024-01-30T00:21:20;6.32;;;3.85;;
21943;SDS011;11136;48.778;9.126;2024-01-30T00:23:46;6.30;;;3.58;;
21943;SDS011;11136;48.778;9.126;2024-01-30T00:26:12;5.78;;;3.58;;
21943;SDS011;11136;48.778;9.126;2024-01-30T00:28:38;4.63;;;3.33;;
21943;SDS011;11136;48.778;9.126;2024-01-30T00:31:03;3.97;;;3.38;;
21943;SDS011;11136;48.778;9.126;2024-01-30T00:33:29;7.60;;;3.90;;
21943;SDS011;11136;48.778;9.126;2024-01-30T00:35:55;7.00;;;4.13;;
21943;SDS011;11136;48.778;9.126;2024-01-30T00:38:20;7.30;;;3.58;;
21943;SDS011;11136;48.778;9.126;2024-01-30T00:40:45;6.45;;;3.70;;
21943;SDS011;11136;48.778;9.126;2024-01-30T00:43:11;5.93;;;3.65;;
21943;SDS011;11136;48.778;9.126;2024-01-30T00:45:36;7.95;;;4.38;;
21943;SDS011;11136;48.778;9.126;2024-01-30T00:48:01;4.88;;;3.20;;
21943;SDS011;11136;48.778;9.126;2024-01-30T00:50:27;6.72;;;3.70;;
21943;SDS011;11136;48.778;9.126;2024-01-30T00:52:52;4.72;;;3.35;;
21943;SDS011;11136;48.778;9.126;2024-01-30T00:55:17;6.15;;;3.30;;
21943;SDS011;11136;48.778;9.126;2024-01-30T00:57:43;4.63;;;3.20;;
21943;SDS011;11136;48.778;9.126;2024-01-30T01:00:08;6.95;;;3.70;;
21943;SDS011;11136;48.778;9.126;2024-01-30T01:02:34;8.85;;;4.07;;
21943;SDS011;11136;48.778;9.126;2024-01-30T01:05:00;6.50;;;3.70;;
21943;SDS011;11136;48.778;9.126;2024-01-30T01:07:26;3.72;;;3.20;;
21943;SDS011;11136;48.778;9.126;2024-01-30T01:09:51;3.63;;;2.80;;
21943;SDS011;11136;48.778;9.126;2024-01-30T01:12:16;8.82;;;3.90;;
21943;SDS011;11136;48.778;9.126;2024-01-30T01:14:42;4.63;;;3.17;;
21943;SDS011;11136;48.778;9.126;2024-01-30T01:17:07;5.03;;;3.45;;
21943;SDS011;11136;48.778;9.126;2024-01-30T01:19:32;4.15;;;3.08;;
21943;SDS011;11136;48.778;9.126;2024-01-30T01:21:58;4.03;;;3.25;;
21943;SDS011;11136;48.778;9.126;2024-01-30T01:24:23;8.25;;;5.20;;
21943;SDS011;11136;48.778;9.126;2024-01-30T01:26:49;6.88;;;3.80;;
21943;SDS011;11136;48.778;9.126;2024-01-30T01:29:14;3.92;;;3.33;;
21943;SDS011;11136;48.778;9.126;2024-01-30T01:31:40;9.13;;;3.50;;
21943;SDS011;11136;48.778;9.126;2024-01-30T01:34:12;5.70;;;3.88;;
21943;SDS011;11136;48.778;9.126;2024-01-30T01:36:38;6.18;;;3.65;;
21943;SDS011;11136;48.778;9.126;2024-01-30T01:39:04;4.47;;;3.22;;
21943;SDS011;11136;48.778;9.126;2024-01-30T01:41:32;4.93;;;3.50;;
21943;SDS011;11136;48.778;9.126;2024-01-30T01:43:58;4.45;;;2.85;;
21943;SDS011;11136;48.778;9.126;2024-01-30T01:46:26;6.30;;;2.97;;
21943;SDS011;11136;48.778;9.126;2024-01-30T01:48:52;6.03;;;2.90;;
21943;SDS011;11136;48.778;9.126;2024-01-30T01:51:18;4.18;;;3.35;;
21943;SDS011;11136;48.778;9.126;2024-01-30T01:53:44;3.95;;;3.00;;
21943;SDS011;11136;48.778;9.126;2024-01-30T01:56:09;4.82;;;3.28;;
21943;SDS011;11136;48.778;9.126;2024-01-30T01:58:35;4.30;;;3.17;;
21943;SDS011;11136;48.778;9.126;2024-01-30T02:01:01;4.60;;;3.08;;
21943;SDS011;11136;48.778;9.126;2024-01-30T02:03:27;4.90;;;3.30;;
21943;SDS011;11136;48.778;9.126;2024-01-30T02:05:52;5.30;;;3.17;;
21943;SDS011;11136;48.778;9.126;2024-01-30T02:08:19;6.60;;;3.47;;
21943;SDS011;11136;48.778;9.126;2024-01-30T02:10:45;4.80;;;3.30;;
21943;SDS011;11136;48.778;9.126;2024-01-30T02:13:10;5.93;;;3.35;;
21943;SDS011;11136;48.778;9.126;2024-01-30T02:15:36;4.63;;;3.05;;
21943;SDS011;11136;48.778;9.126;2024-01-30T02:18:01;8.20;;;2.65;;
21943;SDS011;11136;48.778;9.126;2024-01-30T02:20:26;8.10;;;3.65;;
21943;SDS011;11136;48.778;9.126;2024-01-30T02:22:54;6.97;;;3.25;;
21943;SDS011;11136;48.778;9.126;2024-01-30T02:25:29;6.03;;;3.08;;
21943;SDS011;11136;48.778;9.126;2024-01-30T02:27:55;7.40;;;3.42;;
21943;SDS011;11136;48.778;9.126;2024-01-30T02:30:21;7.60;;;3.25;;
21943;SDS011;11136;48.778;9.126;2024-01-30T02:32:46;5.65;;;3.33;;
21943;SDS011;11136;48.778;9.126;2024-01-30T02:35:11;4.47;;;2.83;;
21943;SDS011;11136;48.778;9.126;2024-01-30T02:37:37;7.03;;;3.30;;
21943;SDS011;11136;48.778;9.126;2024-01-30T02:40:02;4.80;;;3.17;;
21943;SDS011;11136;48.778;9.126;2024-01-30T02:42:27;5.70;;;2.85;;
21943;SDS011;11136;48.778;9.126;2024-01-30T02:44:53;6.22;;;2.97;;
21943;SDS011;11136;48.778;9.126;2024-01-30T02:47:18;5.03;;;2.70;;
21943;SDS011;11136;48.778;9.126;2024-01-30T02:49:43;3.63;;;3.10;;
21943;SDS011;11136;48.778;9.126;2024-01-30T02:52:09;4.03;;;2.95;;
21943;SDS011;11136;48.778;9.126;2024-01-30T02:54:34;4.45;;;3.13;;
21943;SDS011;11136;48.778;9.126;2024-01-30T02:56:59;7.30;;;3.00;;
21943;SDS011;11136;48.778;9.126;2024-01-30T02:59:25;6.97;;;2.72;;
21943;SDS011;11136;48.778;9.126;2024-01-30T03:01:52;4.25;;;2.85;;
21943;SDS011;11136;48.778;9.126;2024-01-30T03:04:17;3.53;;;2.70;;
21943;SDS011;11136;48.778;9.126;2024-01-30T03:06:45;4.85;;;3.03;;
21943;SDS011;11136;48.778;9.126;2024-01-30T03:09:15;4.07;;;2.72;;
21943;SDS011;11136;48.778;9.126;2024-01-30T03:11:42;4.53;;;3.00;;
21943;SDS011;11136;48.778;9.126;2024-01-30T03:14:07;4.88;;;2.72;;
21943;SDS011;11136;48.778;9.126;2024-01-30T03:16:35;4.18;;;3.15;;
21943;SDS011;11136;48.778;9.126;2024-01-30T03:19:01;4.13;;;2.83;;
21943;SDS011;11136;48.778;9.126;2024-01-30T03:21:28;4.18;;;2.28;;
21943;SDS011;11136;48.778;9.126;2024-01-30T03:23:53;4.35;;;2.75;;
21943;SDS011;11136;48.778;9.126;2024-01-30T03:26:19;6.07;;;3.35;;
21943;SDS011;11136;48.778;9.126;2024-01-30T03:28:44;4.00;;;2.70;;
21943;SDS011;11136;48.778;9.126;2024-01-30T03:31:09;5.22;;;3.00;;
21943;SDS011;11136;48.778;9.126;2024-01-30T03:33:36;7.90;;;2.85;;
21943;SDS011;11136;48.778;9.126;2024-01-30T03:36:03;3.28;;;2.50;;
21943;SDS011;11136;48.778;9.126;2024-01-30T03:38:29;5.30;;;2.60;;
21943;SDS011;11136;48.778;9.126;2024-01-30T03:40:54;5.95;;;2.53;;
21943;SDS011;11136;48.778;9.126;2024-01-30T03:43:20;3.42;;;2.50;;
21943;SDS011;11136;48.778;9.126;2024-01-30T03:45:45;4.85;;;3.10;;
21943;SDS011;11136;48.778;9.126;2024-01-30T03:48:10;3.40;;;2.53;;
21943;SDS011;11136;48.778;9.126;2024-01-30T03:50:36;4.00;;;2.80;;
21943;SDS011;11136;48.778;9.126;2024-01-30T03:53:01;4.07;;;2.80;;
21943;SDS011;11136;48.778;9.126;2024-01-30T03:55:26;3.58;;;2.67;;
21943;SDS011;11136;48.778;9.126;2024-01-30T03:57:51;4.03;;;2.75;;
21943;SDS011;11136;48.778;9.126;2024-01-30T04:00:17;4.40;;;2.55;;
21943;SDS011;11136;48.778;9.126;2024-01-30T04:02:42;2.97;;;2.20;;
21943;SDS011;11136;48.778;9.126;2024-01-30T04:05:08;4.15;;;2.90;;
21943;SDS011;11136;48.778;9.126;2024-01-30T04:07:33;3.72;;;2.53;;
21943;SDS011;11136;48.778;9.126;2024-01-30T04:09:58;5.30;;;2.80;;
21943;SDS011;11136;48.778;9.126;2024-01-30T04:12:24;4.53;;;2.30;;
21943;SDS011;11136;48.778;9.126;2024-01-30T04:14:49;3.80;;;2.78;;
21943;SDS011;11136;48.778;9.126;2024-01-30T04:17:14;4.57;;;2.50;;
21943;SDS011;11136;48.778;9.126;2024-01-30T04:19:40;5.00;;;2.40;;
21943;SDS011;11136;48.778;9.126;2024-01-30T04:22:05;4.55;;;2.58;;
21943;SDS011;11136;48.778;9.126;2024-01-30T04:24:31;3.38;;;2.67;;
21943;SDS011;11136;48.778;9.126;2024-01-30T04:26:56;3.08;;;2.60;;
21943;SDS011;11136;48.778;9.126;2024-01-30T04:29:21;3.63;;;2.35;;
21943;SDS011;11136;48.778;9.126;2024-01-30T04:31:47;4.28;;;2.75;;
21943;SDS011;11136;48.778;9.126;2024-01-30T04:34:13;3.58;;;2.60;;
21943;SDS011;11136;48.778;9.126;2024-01-30T04:36:38;3.88;;;2.88;;
21943;SDS011;11136;48.778;9.126;2024-01-30T04:39:03;5.10;;;2.78;;
21943;SDS011;11136;48.778;9.126;2024-01-30T04:41:29;5.07;;;2.72;;
21943;SDS011;11136;48.778;9.126;2024-01-30T04:43:56;7.00;;;2.50;;
21943;SDS011;11136;48.778;9.126;2024-01-30T04:46:21;3.38;;;2.33;;
21943;SDS011;11136;48.778;9.126;2024-01-30T04:48:47;3.80;;;2.33;;
21943;SDS011;11136;48.778;9.126;2024-01-30T04:51:12;3.88;;;2.67;;
21943;SDS011;11136;48.778;9.126;2024-01-30T04:53:37;3.03;;;2.20;;
21943;SDS011;11136;48.778;9.126;2024-01-30T04:56:05;4.13;;;2.90;;
21943;SDS011;11136;48.778;9.126;2024-01-30T04:58:30;4.35;;;2.67;;
21943;SDS011;11136;48.778;9.126;2024-01-30T05:00:55;3.80;;;2.70;;
21943;SDS011;11136;48.778;9.126;2024-01-30T05:03:21;5.25;;;3.15;;
21943;SDS011;11136;48.778;9.126;2024-01-30T05:05:48;4.72;;;3.15;;
21943;SDS011;11136;48.778;9.126;2024-01-30T05:08:13;3.78;;;2.63;;
21943;SDS011;11136;48.778;9.126;2024-01-30T05:10:38;3.85;;;2.45;;
21943;SDS011;11136;48.778;9.126;2024-01-30T05:13:03;4.65;;;2.70;;
21943;SDS011;11136;48.778;9.126;2024-01-30T05:15:29;4.15;;;2.53;;
21943;SDS011;11136;48.778;9.126;2024-01-30T05:17:54;3.88;;;2.60;;
21943;SDS011;11136;48.778;9.126;2024-01-30T05:20:20;4.45;;;2.75;;
21943;SDS011;11136;48.778;9.126;2024-01-30T05:22:45;4.65;;;2.75;;
21943;SDS011;11136;48.778;9.126;2024-01-30T05:25:12;5.30;;;2.65;;
21943;SDS011;11136;48.778;9.126;2024-01-30T05:27:37;5.22;;;2.55;;
21943;SDS011;11136;48.778;9.126;2024-01-30T05:30:03;3.20;;;2.38;;
21943;SDS011;11136;48.778;9.126;2024-01-30T05:32:31;4.35;;;2.63;;
21943;SDS011;11136;48.778;9.126;2024-01-30T05:34:56;4.18;;;2.45;;
21943;SDS011;11136;48.778;9.126;2024-01-30T05:37:21;3.78;;;2.28;;
21943;SDS011;11136;48.778;9.126;2024-01-30T05:39:47;4.28;;;2.80;;
21943;SDS011;11136;48.778;9.126;2024-01-30T05:42:12;4.55;;;2.85;;
21943;SDS011;11136;48.778;9.126;2024-01-30T05:44:37;4.22;;;2.25;;
21943;SDS011;11136;48.778;9.126;2024-01-30T05:47:03;6.05;;;3.00;;
21943;SDS011;11136;48.778;9.126;2024-01-30T05:49:28;4.28;;;2.33;;
21943;SDS011;11136;48.778;9.126;2024-01-30T05:51:53;4.07;;;2.10;;
21943;SDS011;11136;48.778;9.126;2024-01-30T05:54:19;3.55;;;2.45;;
21943;SDS011;11136;48.778;9.126;2024-01-30T05:56:44;3.97;;;2.47;;
21943;SDS011;11136;48.778;9.126;2024-01-30T05:59:09;4.40;;;2.50;;
21943;SDS011;11136;48.778;9.126;2024-01-30T06:01:35;3.08;;;2.47;;
21943;SDS011;11136;48.778;9.126;2024-01-30T06:04:00;3.83;;;2.28;;
21943;SDS011;11136;48.778;9.126;2024-01-30T06:06:26;7.30;;;3.00;;
21943;SDS011;11136;48.778;9.126;2024-01-30T06:08:52;3.42;;;2.80;;
21943;SDS011;11136;48.778;9.126;2024-01-30T06:11:20;6.38;;;2.78;;
21943;SDS011;11136;48.778;9.126;2024-01-30T06:13:45;3.80;;;2.75;;
21943;SDS011;11136;48.778;9.126;2024-01-30T06:16:11;4.10;;;1.98;;
21943;SDS011;11136;48.778;9.126;2024-01-30T06:18:37;7.20;;;4.65;;
21943;SDS011;11136;48.778;9.126;2024-01-30T06:21:04;8.70;;;5.13;;
21943;SDS011;11136;48.778;9.126;2024-01-30T06:23:29;11.32;;;6.20;;
21943;SDS011;11136;48.778;9.126;2024-01-30T06:25:55;9.02;;;3.80;;
21943;SDS011;11136;48.778;9.126;2024-01-30T06:28:20;4.05;;;3.08;;
21943;SDS011;11136;48.778;9.126;2024-01-30T06:30:45;4.03;;;2.70;;
21943;SDS011;11136;48.778;9.126;2024-01-30T06:33:14;4.18;;;2.55;;
21943;SDS011;11136;48.778;9.126;2024-01-30T06:35:40;4.97;;;2.65;;
21943;SDS011;11136;48.778;9.126;2024-01-30T06:38:05;2.88;;;2.33;;
21943;SDS011;11136;48.778;9.126;2024-01-30T06:40:31;2.70;;;2.20;;
21943;SDS011;11136;48.778;9.126;2024-01-30T06:42:56;3.08;;;2.22;;
21943;SDS011;11136;48.778;9.126;2024-01-30T06:45:22;4.07;;;2.47;;
21943;SDS011;11136;48.778;9.126;2024-01-30T06:47:47;5.18;;;2.75;;
21943;SDS011;11136;48.778;9.126;2024-01-30T06:50:12;6.15;;;3.03;;
21943;SDS011;11136;48.778;9.126;2024-01-30T06:52:38;6.78;;;2.80;;
21943;SDS011;11136;48.778;9.126;2024-01-30T06:55:03;5.57;;;3.47;;
21943;SDS011;11136;48.778;9.126;2024-01-30T06:57:29;7.88;;;3.80;;
21943;SDS011;11136;48.778;9.126;2024-01-30T06:59:55;5.25;;;2.95;;
21943;SDS011;11136;48.778;9.126;2024-01-30T07:02:20;9.38;;;3.83;;
21943;SDS011;11136;48.778;9.126;2024-01-30T07:04:46;6.35;;;3.33;;
21943;SDS011;11136;48.778;9.126;2024-01-30T07:07:11;6.30;;;2.95;;
21943;SDS011;11136;48.778;9.126;2024-01-30T07:09:38;5.00;;;3.22;;
21943;SDS011;11136;48.778;9.126;2024-01-30T07:12:04;8.48;;;4.00;;
21943;SDS011;11136;48.778;9.126;2024-01-30T07:14:35;8.38;;;4.20;;
21943;SDS011;11136;48.778;9.126;2024-01-30T07:17:02;11.05;;;4.13;;
21943;SDS011;11136;48.778;9.126;2024-01-30T07:19:27;7.20;;;3.38;;
21943;SDS011;11136;48.778;9.126;2024-01-30T07:21:52;5.80;;;3.33;;
21943;SDS011;11136;48.778;9.126;2024-01-30T07:24:18;8.75;;;4.28;;
21943;SDS011;11136;48.778;9.126;2024-01-30T07:26:43;6.55;;;3.78;;
21943;SDS011;11136;48.778;9.126;2024-01-30T07:29:08;7.55;;;3.83;;
21943;SDS011;11136;48.778;9.126;2024-01-30T07:31:34;3.50;;;3.05;;
21943;SDS011;11136;48.778;9.126;2024-01-30T07:33:59;6.20;;;3.45;;
21943;SDS011;11136;48.778;9.126;2024-01-30T07:36:24;4.15;;;3.17;;
21943;SDS011;11136;48.778;9.126;2024-01-30T07:38:50;8.23;;;3.28;;
21943;SDS011;11136;48.778;9.126;2024-01-30T07:41:15;4.80;;;3.17;;
21943;SDS011;11136;48.778;9.126;2024-01-30T07:43:40;4.63;;;3.45;;
21943;SDS011;11136;48.778;9.126;2024-01-30T07:46:05;4.15;;;3.10;;
21943;SDS011;11136;48.778;9.126;2024-01-30T07:48:32;5.53;;;3.55;;
21943;SDS011;11136;48.778;9.126;2024-01-30T07:50:58;11.55;;;6.15;;
21943;SDS011;11136;48.778;9.126;2024-01-30T07:53:24;9.35;;;3.00;;
21943;SDS011;11136;48.778;9.126;2024-01-30T07:55:49;4.53;;;3.10;;
21943;SDS011;11136;48.778;9.126;2024-01-30T07:58:14;5.05;;;2.90;;
21943;SDS011;11136;48.778;9.126;2024-01-30T08:00:40;5.45;;;2.80;;
21943;SDS011;11136;48.778;9.126;2024-01-30T08:03:05;4.75;;;3.03;;
21943;SDS011;11136;48.778;9.126;2024-01-30T08:05:30;9.45;;;3.60;;
21943;SDS011;11136;48.778;9.126;2024-01-30T08:07:56;5.55;;;2.58;;
21943;SDS011;11136;48.778;9.126;2024-01-30T08:10:21;9.18;;;3.10;;
21943;SDS011;11136;48.778;9.126;2024-01-30T08:12:47;6.47;;;3.47;;
21943;SDS011;11136;48.778;9.126;2024-01-30T08:15:12;8.02;;;3.22;;
21943;SDS011;11136;48.778;9.126;2024-01-30T08:17:40;6.47;;;3.67;;
21943;SDS011;11136;48.778;9.126;2024-01-30T08:20:06;4.53;;;2.67;;
21943;SDS011;11136;48.778;9.126;2024-01-30T08:22:33;4.10;;;3.00;;
21943;SDS011;11136;48.778;9.126;2024-01-30T08:24:58;5.60;;;2.92;;
21943;SDS011;11136;48.778;9.126;2024-01-30T08:27:24;6.03;;;3.72;;
21943;SDS011;11136;48.778;9.126;2024-01-30T08:29:49;5.60;;;3.40;;
21943;SDS011;11136;48.778;9.126;2024-01-30T08:32:15;5.03;;;3.22;;
21943;SDS011;11136;48.778;9.126;2024-01-30T08:34:41;5.50;;;3.42;;
21943;SDS011;11136;48.778;9.126;2024-01-30T08:37:06;7.75;;;3.35;;
21943;SDS011;11136;48.778;9.126;2024-01-30T08:39:31;5.15;;;2.95;;
21943;SDS011;11136;48.778;9.126;2024-01-30T08:41:56;4.80;;;3.40;;
21943;SDS011;11136;48.778;9.126;2024-01-30T08:44:22;6.97;;;3.80;;
21943;SDS011;11136;48.778;9.126;2024-01-30T08:46:49;11.30;;;4.47;;
21943;SDS011;11136;48.778;9.126;2024-01-30T08:49:19;6.40;;;4.25;;
21943;SDS011;11136;48.778;9.126;2024-01-30T08:51:45;7.35;;;4.40;;
21943;SDS011;11136;48.778;9.126;2024-01-30T08:54:10;8.30;;;4.18;;
21943;SDS011;11136;48.778;9.126;2024-01-30T08:56:36;7.47;;;3.88;;
21943;SDS011;11136;48.778;9.126;2024-01-30T09:04:48;9.60;;;4.18;;
21943;SDS011;11136;48.778;9.126;2024-01-30T09:07:14;7.38;;;4.55;;
21943;SDS011;11136;48.778;9.126;2024-01-30T09:09:39;6.22;;;4.07;;
21943;SDS011;11136;48.778;9.126;2024-01-30T09:12:08;8.15;;;4.18;;
21943;SDS011;11136;48.778;9.126;2024-01-30T09:14:37;7.53;;;3.92;;
21943;SDS011;11136;48.778;9.126;2024-01-30T09:17:03;7.85;;;3.47;;
21943;SDS011;11136;48.778;9.126;2024-01-30T09:19:29;10.43;;;4.68;;
21943;SDS011;11136;48.778;9.126;2024-01-30T09:21:55;6.18;;;4.47;;
21943;SDS011;11136;48.778;9.126;2024-01-30T09:24:20;10.80;;;4.68;;
21943;SDS011;11136;48.778;9.126;2024-01-30T09:26:45;13.43;;;5.43;;
21943;SDS011;11136;48.778;9.126;2024-01-30T09:29:11;10.10;;;5.75;;
21943;SDS011;11136;48.778;9.126;2024-01-30T09:31:36;10.38;;;5.40;;
21943;SDS011;11136;48.778;9.126;2024-01-30T09:34:01;13.80;;;6.32;;
21943;SDS011;11136;48.778;9.126;2024-01-30T09:36:27;10.25;;;6.13;;
21943;SDS011;11136;48.778;9.126;2024-01-30T09:38:52;14.88;;;6.95;;
21943;SDS011;11136;48.778;9.126;2024-01-30T09:41:18;14.05;;;7.47;;
21943;SDS011;11136;48.778;9.126;2024-01-30T09:43:45;10.52;;;7.45;;
21943;SDS011;11136;48.778;9.126;2024-01-30T09:46:13;13.38;;;7.95;;
21943;SDS011;11136;48.778;9.126;2024-01-30T09:48:42;9.70;;;6.75;;
21943;SDS011;11136;48.778;9.126;2024-01-30T09:51:09;17.30;;;6.72;;
21943;SDS011;11136;48.778;9.126;2024-01-30T09:53:35;12.32;;;7.82;;
21943;SDS011;11136;48.778;9.126;2024-01-30T09:56:02;15.90;;;7.70;;
21943;SDS011;11136;48.778;9.126;2024-01-30T09:58:29;13.68;;;6.95;;
21943;SDS011;11136;48.778;9.126;2024-01-30T10:00:54;15.15;;;7.97;;
21943;SDS011;11136;48.778;9.126;2024-01-30T10:03:19;13.80;;;7.75;;
21943;SDS011;11136;48.778;9.126;2024-01-30T10:05:49;8.52;;;5.72;;
21943;SDS011;11136;48.778;9.126;2024-01-30T10:08:17;5.95;;;4.53;;
21943;SDS011;11136;48.778;9.126;2024-01-30T10:10:47;9.88;;;5.28;;
21943;SDS011;11136;48.778;9.126;2024-01-30T10:13:12;11.93;;;4.70;;
21943;SDS011;11136;48.778;9.126;2024-01-30T10:15:38;7.88;;;5.50;;
21943;SDS011;11136;48.778;9.126;2024-01-30T10:18:04;5.07;;;2.88;;
21943;SDS011;11136;48.778;9.126;2024-01-30T10:20:31;9.10;;;4.85;;
21943;SDS011;11136;48.778;9.126;2024-01-30T10:22:57;20.00;;;5.88;;
21943;SDS011;11136;48.778;9.126;2024-01-30T10:25:22;3.60;;;2.47;;
21943;SDS011;11136;48.778;9.126;2024-01-30T10:27:52;3.50;;;2.42;;
21943;SDS011;11136;48.778;9.126;2024-01-30T10:30:19;3.28;;;2.17;;
21943;SDS011;11136;48.778;9.126;2024-01-30T10:32:44;2.80;;;2.30;;
21943;SDS011;11136;48.778;9.126;2024-01-30T10:35:10;6.43;;;2.20;;
21943;SDS011;11136;48.778;9.126;2024-01-30T10:37:36;5.60;;;2.58;;
21943;SDS011;11136;48.778;9.126;2024-01-30T10:40:03;3.67;;;2.08;;
21943;SDS011;11136;48.778;9.126;2024-01-30T10:42:31;3.58;;;2.13;;
21943;SDS011;11136;48.778;9.126;2024-01-30T10:45:02;4.63;;;1.98;;
21943;SDS011;11136;48.778;9.126;2024-01-30T10:47:34;2.17;;;1.50;;
21943;SDS011;11136;48.778;9.126;2024-01-30T10:50:01;6.40;;;2.30;;
21943;SDS011;11136;48.778;9.126;2024-01-30T10:52:28;5.80;;;2.40;;
21943;SDS011;11136;48.778;9.126;2024-01-30T10:54:55;2.78;;;1.95;;
21943;SDS011;11136;48.778;9.126;2024-01-30T10:57:24;4.45;;;2.42;;
21943;SDS011;11136;48.778;9.126;2024-01-30T10:59:51;3.00;;;2.20;;
21943;SDS011;11136;48.778;9.126;2024-01-30T11:02:18;3.97;;;1.95;;
21943;SDS011;11136;48.778;9.126;2024-01-30T11:04:45;3.83;;;2.28;;
21943;SDS011;11136;48.778;9.126;2024-01-30T11:07:14;3.33;;;2.20;;
21943;SDS011;11136;48.778;9.126;2024-01-30T11:09:50;2.25;;;1.90;;
21943;SDS011;11136;48.778;9.126;2024-01-30T11:12:16;3.92;;;1.90;;
21943;SDS011;11136;48.778;9.126;2024-01-30T11:14:41;3.65;;;2.00;;
21943;SDS011;11136;48.778;9.126;2024-01-30T11:17:09;2.75;;;1.92;;
21943;SDS011;11136;48.778;9.126;2024-01-30T11:19:35;3.50;;;1.92;;
21943;SDS011;11136;48.778;9.126;2024-01-30T11:22:00;2.88;;;1.63;;
21943;SDS011;11136;48.778;9.126;2024-01-30T11:24:27;3.22;;;1.98;;
21943;SDS011;11136;48.778;9.126;2024-01-30T11:26:56;3.20;;;2.15;;
21943;SDS011;11136;48.778;9.126;2024-01-30T11:29:29;3.47;;;1.80;;
21943;SDS011;11136;48.778;9.126;2024-01-30T11:31:55;4.30;;;1.92;;
21943;SDS011;11136;48.778;9.126;2024-01-30T11:34:21;3.55;;;1.95;;
21943;SDS011;11136;48.778;9.126;2024-01-30T11:36:58;3.10;;;2.03;;
21943;SDS011;11136;48.778;9.126;2024-01-30T11:39:27;5.57;;;2.00;;
21943;SDS011;11136;48.778;9.126;2024-01-30T11:41:54;2.53;;;1.90;;
21943;SDS011;11136;48.778;9.126;2024-01-30T11:44:20;2.75;;;2.22;;
21943;SDS011;11136;48.778;9.126;2024-01-30T11:46:49;2.72;;;1.95;;
21943;SDS011;11136;48.778;9.126;2024-01-30T11:49:16;4.35;;;2.17;;
21943;SDS011;11136;48.778;9.126;2024-01-30T11:51:48;4.18;;;1.80;;
21943;SDS011;11136;48.778;9.126;2024-01-30T11:54:14;4.22;;;1.90;;
21943;SDS011;11136;48.778;9.126;2024-01-30T11:56:40;3.92;;;2.10;;
21943;SDS011;11136;48.778;9.126;2024-01-30T11:59:06;7.45;;;1.88;;
21943;SDS011;11136;48.778;9.126;2024-01-30T12:01:32;3.53;;;1.90;;
21943;SDS011;11136;48.778;9.126;2024-01-30T12:03:58;3.95;;;2.03;;
21943;SDS011;11136;48.778;9.126;2024-01-30T12:06:24;2.83;;;2.05;;
21943;SDS011;11136;48.778;9.126;2024-01-30T12:08:59;2.97;;;2.03;;
21943;SDS011;11136;48.778;9.126;2024-01-30T12:11:42;3.08;;;2.05;;
21943;SDS011;11136;48.778;9.126;2024-01-30T12:14:11;4.68;;;2.00;;
21943;SDS011;11136;48.778;9.126;2024-01-30T12:16:37;3.60;;;2.20;;
21943;SDS011;11136;48.778;9.126;2024-01-30T12:19:02;2.20;;;1.30;;
21943;SDS011;11136;48.778;9.126;2024-01-30T12:21:28;3.10;;;2.00;;
21943;SDS011;11136;48.778;9.126;2024-01-30T12:23:54;1.73;;;1.58;;
21943;SDS011;11136;48.778;9.126;2024-01-30T12:26:20;2.65;;;1.70;;
21943;SDS011;11136;48.778;9.126;2024-01-30T12:28:49;3.00;;;1.77;;
21943;SDS011;11136;48.778;9.126;2024-01-30T12:31:15;4.68;;;1.85;;
21943;SDS011;11136;48.778;9.126;2024-01-30T12:33:40;3.90;;;2.03;;
21943;SDS011;11136;48.778;9.126;2024-01-30T12:36:05;4.38;;;2.10;;
21943;SDS011;11136;48.778;9.126;2024-01-30T12:38:31;4.78;;;1.80;;
21943;SDS011;11136;48.778;9.126;2024-01-30T12:40:58;3.67;;;1.70;;
21943;SDS011;11136;48.778;9.126;2024-01-30T12:43:23;2.50;;;1.83;;
21943;SDS011;11136;48.778;9.126;2024-01-30T12:45:50;2.38;;;1.75;;
21943;SDS011;11136;48.778;9.126;2024-01-30T12:48:15;8.40;;;2.05;;
21943;SDS011;11136;48.778;9.126;2024-01-30T12:50:40;3.78;;;2.15;;
21943;SDS011;11136;48.778;9.126;2024-01-30T12:53:06;3.40;;;1.80;;
21943;SDS011;11136;48.778;9.126;2024-01-30T12:55:32;2.97;;;1.73;;
21943;SDS011;11136;48.778;9.126;2024-01-30T12:57:57;3.10;;;2.30;;
21943;SDS011;11136;48.778;9.126;2024-01-30T13:00:23;3.42;;;2.20;;
21943;SDS011;11136;48.778;9.126;2024-01-30T13:02:48;3.03;;;1.90;;
21943;SDS011;11136;48.778;9.126;2024-01-30T13:05:14;2.47;;;2.00;;
21943;SDS011;11136;48.778;9.126;2024-01-30T13:07:39;3.03;;;2.42;;
21943;SDS011;11136;48.778;9.126;2024-01-30T13:10:05;3.58;;;2.30;;
21943;SDS011;11136;48.778;9.126;2024-01-30T13:12:31;3.63;;;2.40;;
21943;SDS011;11136;48.778;9.126;2024-01-30T13:14:59;7.40;;;2.25;;
21943;SDS011;11136;48.778;9.126;2024-01-30T13:17:29;5.03;;;1.80;;
21943;SDS011;11136;48.778;9.126;2024-01-30T13:19:55;2.58;;;1.92;;
21943;SDS011;11136;48.778;9.126;2024-01-30T13:22:20;2.88;;;2.15;;
21943;SDS011;11136;48.778;9.126;2024-01-30T13:24:49;5.70;;;2.22;;
21943;SDS011;11136;48.778;9.126;2024-01-30T13:27:15;8.52;;;4.45;;
21943;SDS011;11136;48.778;9.126;2024-01-30T13:29:40;9.25;;;4.57;;
21943;SDS011;11136;48.778;9.126;2024-01-30T13:32:05;9.25;;;5.25;;
21943;SDS011;11136;48.778;9.126;2024-01-30T13:34:31;14.40;;;5.05;;
21943;SDS011;11136;48.778;9.126;2024-01-30T13:36:56;10.43;;;4.75;;
21943;SDS011;11136;48.778;9.126;2024-01-30T13:39:22;8.50;;;5.07;;
21943;SDS011;11136;48.778;9.126;2024-01-30T13:41:48;8.02;;;4.93;;
21943;SDS011;11136;48.778;9.126;2024-01-30T13:44:13;9.75;;;5.30;;
21943;SDS011;11136;48.778;9.126;2024-01-30T13:46:41;8.18;;;5.30;;
21943;SDS011;11136;48.778;9.126;2024-01-30T13:49:06;8.73;;;5.50;;
21943;SDS011;11136;48.778;9.126;2024-01-30T13:51:32;8.68;;;5.35;;
21943;SDS011;11136;48.778;9.126;2024-01-30T13:53:57;8.68;;;5.47;;
21943;SDS011;11136;48.778;9.126;2024-01-30T13:56:23;14.60;;;7.13;;
21943;SDS011;11136;48.778;9.126;2024-01-30T13:58:48;14.45;;;7.78;;
21943;SDS011;11136;48.778;9.126;2024-01-30T14:01:15;12.25;;;7.05;;
21943;SDS011;11136;48.778;9.126;2024-01-30T14:03:41;13.90;;;7.20;;
21943;SDS011;11136;48.778;9.126;2024-01-30T14:06:06;20.30;;;8.10;;
21943;SDS011;11136;48.778;9.126;2024-01-30T14:08:31;14.10;;;7.32;;
21943;SDS011;11136;48.778;9.126;2024-01-30T14:10:57;12.50;;;7.20;;
21943;SDS011;11136;48.778;9.126;2024-01-30T14:13:23;18.58;;;8.32;;
21943;SDS011;11136;48.778;9.126;2024-01-30T14:15:50;17.77;;;8.20;;
21943;SDS011;11136;48.778;9.126;2024-01-30T14:18:16;17.33;;;7.90;;
21943;SDS011;11136;48.778;9.126;2024-01-30T14:20:41;13.63;;;7.38;;
21943;SDS011;11136;48.778;9.126;2024-01-30T14:23:07;17.15;;;8.27;;
21943;SDS011;11136;48.778;9.126;2024-01-30T14:25:33;12.57;;;7.38;;
21943;SDS011;11136;48.778;9.126;2024-01-30T14:27:58;25.55;;;8.20;;
21943;SDS011;11136;48.778;9.126;2024-01-30T14:30:23;18.10;;;8.60;;
21943;SDS011;11136;48.778;9.126;2024-01-30T14:32:49;12.05;;;8.13;;
21943;SDS011;11136;48.778;9.126;2024-01-30T14:35:14;19.48;;;8.63;;
21943;SDS011;11136;48.778;9.126;2024-01-30T14:37:40;15.93;;;7.80;;
21943;SDS011;11136;48.778;9.126;2024-01-30T14:40:05;16.70;;;8.55;;
21943;SDS011;11136;48.778;9.126;2024-01-30T14:42:32;15.80;;;8.68;;
21943;SDS011;11136;48.778;9.126;2024-01-30T14:44:58;17.80;;;7.78;;